sensor_id;sensor_type;location;lat;lon;timestamp;pressure;altitude;pressure_sealevel;temperature;humidity
7660;BME280;3872;47.902;8.162;2022-10-22T00:01:01;91753.31;;;11.68;100.00
7660;BME280;3872;47.902;8.162;2022-10-22T00:03:27;91740.41;;;11.67;100.00
7660;BME280;3872;47.902;8.162;2022-10-22T00:05:54;91750.47;;;11.56;100.00
7660;BME280;3872;47.902;8.162;2022-10-22T00:08:21;91750.09;;;11.49;100.00
7660;BME280;3872;47.902;8.162;2022-10-22T00:10:49;91749.69;;;11.56;100.00
7660;BME280;3872;47.902;8.162;2022-10-22T00:13:15;91776.38;;;11.63;100.00
7660;BME280;3872;47.902;8.162;2022-10-22T00:15:42;91787.28;;;11.70;100.00
7660;BME280;3872;47.902;8.162;2022-10-22T00:18:09;91780.38;;;11.60;100.00
7660;BME280;3872;47.902;8.162;2022-10-22T00:20:36;91770.03;;;11.64;100.00
7660;BME280;3872;47.902;8.162;2022-10-22T00:23:02;91789.22;;;11.33;100.00
7660;BME280;3872;47.902;8.162;2022-10-22T00:25:29;91823.94;;;11.35;100.00
7660;BME280;3872;47.902;8.162;2022-10-22T00:27:57;91832.56;;;11.50;100.00
7660;BME280;3872;47.902;8.162;2022-10-22T00:30:24;91831.66;;;11.54;100.00
7660;BME280;3872;47.902;8.162;2022-10-22T00:32:50;91836.44;;;11.52;100.00
7660;BME280;3872;47.902;8.162;2022-10-22T00:35:17;91831.84;;;11.58;100.00
7660;BME280;3872;47.902;8.162;2022-10-22T00:37:44;91833.59;;;11.40;100.00
7660;BME280;3872;47.902;8.162;2022-10-22T00:40:11;91822.72;;;11.19;100.00
7660;BME280;3872;47.902;8.162;2022-10-22T00:42:38;91811.66;;;11.31;100.00
7660;BME280;3872;47.902;8.162;2022-10-22T00:45:21;91822.81;;;11.28;100.00
7660;BME280;3872;47.902;8.162;2022-10-22T00:47:52;91839.94;;;11.39;100.00
7660;BME280;3872;47.902;8.162;2022-10-22T00:50:22;91837.53;;;11.51;100.00
7660;BME280;3872;47.902;8.162;2022-10-22T00:52:50;91847.59;;;11.49;100.00
7660;BME280;3872;47.902;8.162;2022-10-22T00:55:17;91847.25;;;11.42;100.00
7660;BME280;3872;47.902;8.162;2022-10-22T00:57:44;91848.84;;;11.29;100.00
7660;BME280;3872;47.902;8.162;2022-10-22T01:00:12;91840.69;;;11.39;100.00
7660;BME280;3872;47.902;8.162;2022-10-22T01:02:40;91852.97;;;11.44;100.00
7660;BME280;3872;47.902;8.162;2022-10-22T01:05:08;91850.91;;;11.55;100.00
7660;BME280;3872;47.902;8.162;2022-10-22T01:07:38;91853.94;;;11.48;100.00
7660;BME280;3872;47.902;8.162;2022-10-22T01:10:11;91845.19;;;11.39;100.00
7660;BME280;3872;47.902;8.162;2022-10-22T01:12:43;91848.38;;;11.27;100.00
7660;BME280;3872;47.902;8.162;2022-10-22T01:15:18;91846.97;;;11.30;100.00
7660;BME280;3872;47.902;8.162;2022-10-22T01:17:55;91842.47;;;11.30;100.00
7660;BME280;3872;47.902;8.162;2022-10-22T01:20:47;91845.81;;;11.36;100.00
7660;BME280;3872;47.902;8.162;2022-10-22T01:23:31;91839.69;;;11.49;100.00
7660;BME280;3872;47.902;8.162;2022-10-22T01:26:05;91837.94;;;11.45;100.00
7660;BME280;3872;47.902;8.162;2022-10-22T01:28:53;91822.91;;;11.45;100.00
7660;BME280;3872;47.902;8.162;2022-10-22T01:31:23;91814.59;;;11.52;100.00
7660;BME280;3872;47.902;8.162;2022-10-22T01:33:53;91811.72;;;11.39;100.00
7660;BME280;3872;47.902;8.162;2022-10-22T01:36:20;91811.59;;;11.45;100.00
7660;BME280;3872;47.902;8.162;2022-10-22T01:38:48;91806.44;;;11.39;100.00
7660;BME280;3872;47.902;8.162;2022-10-22T01:41:16;91811.59;;;11.45;100.00
7660;BME280;3872;47.902;8.162;2022-10-22T01:43:44;91809.81;;;11.54;100.00
7660;BME280;3872;47.902;8.162;2022-10-22T01:46:11;91808.25;;;11.53;100.00
7660;BME280;3872;47.902;8.162;2022-10-22T01:48:46;91798.75;;;11.43;100.00
7660;BME280;3872;47.902;8.162;2022-10-22T01:51:26;91786.28;;;11.35;100.00
7660;BME280;3872;47.902;8.162;2022-10-22T01:54:00;91790.88;;;11.52;100.00
7660;BME280;3872;47.902;8.162;2022-10-22T01:56:39;91784.78;;;11.43;100.00
7660;BME280;3872;47.902;8.162;2022-10-22T01:59:15;91783.53;;;11.40;100.00
7660;BME280;3872;47.902;8.162;2022-10-22T02:01:48;91789.03;;;11.30;100.00
7660;BME280;3872;47.902;8.162;2022-10-22T02:04:22;91796.34;;;11.33;100.00
7660;BME280;3872;47.902;8.162;2022-10-22T02:06:51;91806.03;;;11.46;100.00
7660;BME280;3872;47.902;8.162;2022-10-22T02:09:21;91810.41;;;11.51;100.00
7660;BME280;3872;47.902;8.162;2022-10-22T02:11:51;91833.34;;;11.28;100.00
7660;BME280;3872;47.902;8.162;2022-10-22T02:14:19;91851.94;;;11.31;100.00
7660;BME280;3872;47.902;8.162;2022-10-22T02:16:47;91850.66;;;11.43;100.00
7660;BME280;3872;47.902;8.162;2022-10-22T02:19:21;91849.59;;;11.44;100.00
7660;BME280;3872;47.902;8.162;2022-10-22T02:21:49;91856.50;;;11.39;100.00
7660;BME280;3872;47.902;8.162;2022-10-22T02:24:17;91854.59;;;11.54;100.00
7660;BME280;3872;47.902;8.162;2022-10-22T02:26:47;91841.31;;;11.36;100.00
7660;BME280;3872;47.902;8.162;2022-10-22T02:29:21;91845.75;;;11.50;100.00
7660;BME280;3872;47.902;8.162;2022-10-22T02:31:51;91842.91;;;11.46;100.00
7660;BME280;3872;47.902;8.162;2022-10-22T02:34:23;91843.03;;;11.41;100.00
7660;BME280;3872;47.902;8.162;2022-10-22T02:36:53;91854.25;;;11.47;100.00
7660;BME280;3872;47.902;8.162;2022-10-22T02:39:21;91846.75;;;11.62;100.00
7660;BME280;3872;47.902;8.162;2022-10-22T02:41:48;91850.03;;;11.68;100.00
7660;BME280;3872;47.902;8.162;2022-10-22T02:44:14;91847.66;;;11.58;100.00
7660;BME280;3872;47.902;8.162;2022-10-22T02:46:43;91852.59;;;11.51;100.00
7660;BME280;3872;47.902;8.162;2022-10-22T02:49:09;91843.16;;;11.36;100.00
7660;BME280;3872;47.902;8.162;2022-10-22T02:51:36;91844.59;;;11.20;100.00
7660;BME280;3872;47.902;8.162;2022-10-22T02:54:02;91848.59;;;11.39;100.00
7660;BME280;3872;47.902;8.162;2022-10-22T02:56:29;91852.38;;;11.47;100.00
7660;BME280;3872;47.902;8.162;2022-10-22T02:58:56;91853.28;;;11.43;100.00
7660;BME280;3872;47.902;8.162;2022-10-22T03:01:22;91848.25;;;11.55;100.00
7660;BME280;3872;47.902;8.162;2022-10-22T03:03:50;91842.41;;;11.58;100.00
7660;BME280;3872;47.902;8.162;2022-10-22T03:06:17;91836.34;;;11.57;100.00
7660;BME280;3872;47.902;8.162;2022-10-22T03:08:44;91842.78;;;11.51;100.00
7660;BME280;3872;47.902;8.162;2022-10-22T03:11:11;91845.19;;;11.39;100.00
7660;BME280;3872;47.902;8.162;2022-10-22T03:13:37;91825.38;;;11.64;100.00
7660;BME280;3872;47.902;8.162;2022-10-22T03:16:04;91828.59;;;11.61;100.00
7660;BME280;3872;47.902;8.162;2022-10-22T03:18:31;91836.38;;;11.66;100.00
7660;BME280;3872;47.902;8.162;2022-10-22T03:21:08;91834.44;;;11.71;100.00
7660;BME280;3872;47.902;8.162;2022-10-22T03:23:36;91833.44;;;11.67;100.00
7660;BME280;3872;47.902;8.162;2022-10-22T03:26:04;91847.78;;;11.53;100.00
7660;BME280;3872;47.902;8.162;2022-10-22T03:28:32;91855.59;;;11.44;100.00
7660;BME280;3872;47.902;8.162;2022-10-22T03:30:58;91855.16;;;11.42;100.00
7660;BME280;3872;47.902;8.162;2022-10-22T03:33:25;91846.88;;;11.57;100.00
7660;BME280;3872;47.902;8.162;2022-10-22T03:35:51;91839.94;;;11.61;100.00
7660;BME280;3872;47.902;8.162;2022-10-22T03:38:19;91849.88;;;11.64;100.00
7660;BME280;3872;47.902;8.162;2022-10-22T03:40:46;91848.19;;;11.68;100.00
7660;BME280;3872;47.902;8.162;2022-10-22T03:43:13;91842.91;;;11.68;100.00
7660;BME280;3872;47.902;8.162;2022-10-22T03:45:40;91850.59;;;11.56;100.00
7660;BME280;3872;47.902;8.162;2022-10-22T03:48:06;91855.94;;;11.65;100.00
7660;BME280;3872;47.902;8.162;2022-10-22T03:50:33;91842.13;;;11.68;100.00
7660;BME280;3872;47.902;8.162;2022-10-22T03:52:59;91830.94;;;11.62;100.00
7660;BME280;3872;47.902;8.162;2022-10-22T03:55:27;91835.94;;;11.64;100.00
7660;BME280;3872;47.902;8.162;2022-10-22T03:57:54;91837.50;;;11.65;100.00
7660;BME280;3872;47.902;8.162;2022-10-22T04:00:21;91837.50;;;11.65;100.00
7660;BME280;3872;47.902;8.162;2022-10-22T04:02:47;91837.28;;;11.39;100.00
7660;BME280;3872;47.902;8.162;2022-10-22T04:05:14;91834.13;;;11.51;100.00
7660;BME280;3872;47.902;8.162;2022-10-22T04:07:41;91840.50;;;11.58;100.00
7660;BME280;3872;47.902;8.162;2022-10-22T04:10:08;91844.34;;;11.52;100.00
7660;BME280;3872;47.902;8.162;2022-10-22T04:12:36;91847.34;;;11.37;100.00
7660;BME280;3872;47.902;8.162;2022-10-22T04:15:03;91843.59;;;11.16;100.00
7660;BME280;3872;47.902;8.162;2022-10-22T04:17:33;91854.53;;;11.09;100.00
7660;BME280;3872;47.902;8.162;2022-10-22T04:20:00;91856.69;;;11.21;100.00
7660;BME280;3872;47.902;8.162;2022-10-22T04:22:26;91854.13;;;11.16;100.00
7660;BME280;3872;47.902;8.162;2022-10-22T04:24:53;91859.91;;;11.18;100.00
7660;BME280;3872;47.902;8.162;2022-10-22T04:27:20;91851.41;;;11.21;100.00
7660;BME280;3872;47.902;8.162;2022-10-22T04:29:48;91859.78;;;10.87;100.00
7660;BME280;3872;47.902;8.162;2022-10-22T04:32:15;91860.16;;;10.80;100.00
7660;BME280;3872;47.902;8.162;2022-10-22T04:34:41;91862.44;;;11.09;100.00
7660;BME280;3872;47.902;8.162;2022-10-22T04:37:08;91860.25;;;11.25;100.00
7660;BME280;3872;47.902;8.162;2022-10-22T04:39:34;91858.41;;;11.25;100.00
7660;BME280;3872;47.902;8.162;2022-10-22T04:42:01;91861.16;;;11.20;100.00
7660;BME280;3872;47.902;8.162;2022-10-22T04:44:28;91861.91;;;10.98;100.00
7660;BME280;3872;47.902;8.162;2022-10-22T04:46:56;91858.81;;;11.19;100.00
7660;BME280;3872;47.902;8.162;2022-10-22T04:49:22;91878.03;;;11.19;100.00
7660;BME280;3872;47.902;8.162;2022-10-22T04:51:49;91869.84;;;11.21;100.00
7660;BME280;3872;47.902;8.162;2022-10-22T04:54:15;91874.88;;;10.81;100.00
7660;BME280;3872;47.902;8.162;2022-10-22T04:56:42;91875.19;;;10.80;100.00
7660;BME280;3872;47.902;8.162;2022-10-22T04:59:10;91862.03;;;10.80;100.00
7660;BME280;3872;47.902;8.162;2022-10-22T05:01:39;91863.38;;;10.91;100.00
7660;BME280;3872;47.902;8.162;2022-10-22T05:04:08;91867.84;;;11.04;100.00
7660;BME280;3872;47.902;8.162;2022-10-22T05:06:36;91866.38;;;10.98;100.00
7660;BME280;3872;47.902;8.162;2022-10-22T05:09:05;91869.13;;;10.93;100.00
7660;BME280;3872;47.902;8.162;2022-10-22T05:11:34;91870.81;;;10.62;100.00
7660;BME280;3872;47.902;8.162;2022-10-22T05:14:05;91864.44;;;10.90;100.00
7660;BME280;3872;47.902;8.162;2022-10-22T05:16:32;91869.41;;;10.91;100.00
7660;BME280;3872;47.902;8.162;2022-10-22T05:19:00;91863.63;;;11.03;100.00
7660;BME280;3872;47.902;8.162;2022-10-22T05:21:29;91875.84;;;11.35;100.00
7660;BME280;3872;47.902;8.162;2022-10-22T05:23:56;91878.09;;;10.92;100.00
7660;BME280;3872;47.902;8.162;2022-10-22T05:26:24;91878.72;;;10.62;100.00
7660;BME280;3872;47.902;8.162;2022-10-22T05:28:51;91883.63;;;11.04;100.00
7660;BME280;3872;47.902;8.162;2022-10-22T05:31:19;91876.47;;;11.18;100.00
7660;BME280;3872;47.902;8.162;2022-10-22T05:33:46;91878.00;;;11.33;100.00
7660;BME280;3872;47.902;8.162;2022-10-22T05:36:15;91871.28;;;11.27;100.00
7660;BME280;3872;47.902;8.162;2022-10-22T05:38:44;91885.00;;;10.88;100.00
7660;BME280;3872;47.902;8.162;2022-10-22T05:41:12;91874.16;;;11.03;100.00
7660;BME280;3872;47.902;8.162;2022-10-22T05:43:39;91885.25;;;10.78;100.00
7660;BME280;3872;47.902;8.162;2022-10-22T05:46:07;91895.63;;;10.96;100.00
7660;BME280;3872;47.902;8.162;2022-10-22T05:48:34;91900.03;;;10.87;100.00
7660;BME280;3872;47.902;8.162;2022-10-22T05:51:01;91902.56;;;10.92;100.00
7660;BME280;3872;47.902;8.162;2022-10-22T05:53:30;91909.31;;;10.85;100.00
7660;BME280;3872;47.902;8.162;2022-10-22T05:56:00;91900.66;;;10.71;100.00
7660;BME280;3872;47.902;8.162;2022-10-22T05:58:27;91906.88;;;10.75;100.00
7660;BME280;3872;47.902;8.162;2022-10-22T06:00:54;91913.19;;;10.60;100.00
7660;BME280;3872;47.902;8.162;2022-10-22T06:03:25;91919.25;;;10.74;100.00
7660;BME280;3872;47.902;8.162;2022-10-22T06:05:53;91918.97;;;10.76;100.00
7660;BME280;3872;47.902;8.162;2022-10-22T06:08:19;91921.81;;;10.79;100.00
7660;BME280;3872;47.902;8.162;2022-10-22T06:10:46;91920.25;;;10.65;100.00
7660;BME280;3872;47.902;8.162;2022-10-22T06:13:14;91924.03;;;10.86;100.00
7660;BME280;3872;47.902;8.162;2022-10-22T06:15:41;91936.59;;;10.89;100.00
7660;BME280;3872;47.902;8.162;2022-10-22T06:18:07;91934.84;;;10.71;100.00
7660;BME280;3872;47.902;8.162;2022-10-22T06:20:34;91938.75;;;10.87;100.00
7660;BME280;3872;47.902;8.162;2022-10-22T06:23:00;91943.25;;;10.86;100.00
7660;BME280;3872;47.902;8.162;2022-10-22T06:25:27;91937.19;;;10.58;100.00
7660;BME280;3872;47.902;8.162;2022-10-22T06:27:53;91938.31;;;10.25;100.00
7660;BME280;3872;47.902;8.162;2022-10-22T06:30:21;91943.44;;;10.63;100.00
7660;BME280;3872;47.902;8.162;2022-10-22T06:32:48;91945.78;;;10.78;100.00
7660;BME280;3872;47.902;8.162;2022-10-22T06:35:15;91948.00;;;10.71;100.00
7660;BME280;3872;47.902;8.162;2022-10-22T06:37:41;91953.00;;;10.72;100.00
7660;BME280;3872;47.902;8.162;2022-10-22T06:40:09;91957.94;;;10.60;100.00
7660;BME280;3872;47.902;8.162;2022-10-22T06:42:36;91959.03;;;10.73;100.00
7660;BME280;3872;47.902;8.162;2022-10-22T06:45:03;91957.94;;;10.74;100.00
7660;BME280;3872;47.902;8.162;2022-10-22T06:47:31;91966.53;;;10.79;100.00
7660;BME280;3872;47.902;8.162;2022-10-22T06:49:58;91972.59;;;10.80;100.00
7660;BME280;3872;47.902;8.162;2022-10-22T06:52:24;91972.84;;;10.51;100.00
7660;BME280;3872;47.902;8.162;2022-10-22T06:54:51;91974.72;;;10.78;100.00
7660;BME280;3872;47.902;8.162;2022-10-22T06:57:18;91980.88;;;10.87;100.00
7660;BME280;3872;47.902;8.162;2022-10-22T06:59:45;91986.44;;;10.85;100.00
7660;BME280;3872;47.902;8.162;2022-10-22T07:02:11;91989.13;;;10.80;100.00
7660;BME280;3872;47.902;8.162;2022-10-22T07:04:39;92002.50;;;10.70;100.00
7660;BME280;3872;47.902;8.162;2022-10-22T07:07:06;92000.06;;;10.74;100.00
7660;BME280;3872;47.902;8.162;2022-10-22T07:09:32;92006.31;;;10.78;100.00
7660;BME280;3872;47.902;8.162;2022-10-22T07:11:59;92007.56;;;10.80;100.00
7660;BME280;3872;47.902;8.162;2022-10-22T07:14:25;92012.44;;;10.73;100.00
7660;BME280;3872;47.902;8.162;2022-10-22T07:16:52;92009.91;;;10.68;100.00
7660;BME280;3872;47.902;8.162;2022-10-22T07:19:19;92011.81;;;11.22;100.00
7660;BME280;3872;47.902;8.162;2022-10-22T07:21:47;92013.94;;;11.07;100.00
7660;BME280;3872;47.902;8.162;2022-10-22T07:24:13;92014.00;;;11.02;100.00
7660;BME280;3872;47.902;8.162;2022-10-22T07:26:40;92019.88;;;10.85;100.00
7660;BME280;3872;47.902;8.162;2022-10-22T07:29:06;92019.19;;;10.93;100.00
7660;BME280;3872;47.902;8.162;2022-10-22T07:31:34;92026.50;;;11.10;100.00
7660;BME280;3872;47.902;8.162;2022-10-22T07:34:01;92023.09;;;11.23;100.00
7660;BME280;3872;47.902;8.162;2022-10-22T07:36:27;92025.16;;;11.26;100.00
7660;BME280;3872;47.902;8.162;2022-10-22T07:38:57;92021.56;;;11.08;100.00
7660;BME280;3872;47.902;8.162;2022-10-22T07:41:24;92023.69;;;11.20;100.00
7660;BME280;3872;47.902;8.162;2022-10-22T07:43:51;92023.19;;;11.04;100.00
7660;BME280;3872;47.902;8.162;2022-10-22T07:46:18;92021.84;;;11.07;100.00
7660;BME280;3872;47.902;8.162;2022-10-22T07:48:45;92029.06;;;11.01;100.00
7660;BME280;3872;47.902;8.162;2022-10-22T07:51:12;92033.53;;;11.55;100.00
7660;BME280;3872;47.902;8.162;2022-10-22T07:53:38;92032.75;;;11.55;100.00
7660;BME280;3872;47.902;8.162;2022-10-22T07:56:07;92034.91;;;12.02;100.00
7660;BME280;3872;47.902;8.162;2022-10-22T07:58:34;92041.25;;;12.01;100.00
7660;BME280;3872;47.902;8.162;2022-10-22T08:01:01;92042.94;;;11.97;100.00
7660;BME280;3872;47.902;8.162;2022-10-22T08:03:30;92043.88;;;12.01;100.00
7660;BME280;3872;47.902;8.162;2022-10-22T08:05:57;92040.81;;;12.22;100.00
7660;BME280;3872;47.902;8.162;2022-10-22T08:08:25;92039.22;;;11.98;100.00
7660;BME280;3872;47.902;8.162;2022-10-22T08:10:56;92038.69;;;12.10;100.00
7660;BME280;3872;47.902;8.162;2022-10-22T08:13:26;92034.56;;;12.18;100.00
7660;BME280;3872;47.902;8.162;2022-10-22T08:15:55;92044.28;;;11.95;100.00
7660;BME280;3872;47.902;8.162;2022-10-22T08:18:21;92039.44;;;12.46;100.00
7660;BME280;3872;47.902;8.162;2022-10-22T08:20:48;92032.41;;;12.95;100.00
7660;BME280;3872;47.902;8.162;2022-10-22T08:23:14;92033.94;;;13.18;100.00
7660;BME280;3872;47.902;8.162;2022-10-22T08:25:41;92034.50;;;13.46;100.00
7660;BME280;3872;47.902;8.162;2022-10-22T08:28:07;92044.56;;;14.01;100.00
7660;BME280;3872;47.902;8.162;2022-10-22T08:30:36;92043.69;;;14.48;100.00
7660;BME280;3872;47.902;8.162;2022-10-22T08:33:04;92037.53;;;14.91;100.00
7660;BME280;3872;47.902;8.162;2022-10-22T08:35:31;92036.50;;;14.58;100.00
7660;BME280;3872;47.902;8.162;2022-10-22T08:37:58;92040.50;;;14.81;100.00
7660;BME280;3872;47.902;8.162;2022-10-22T08:40:29;92038.75;;;15.02;100.00
7660;BME280;3872;47.902;8.162;2022-10-22T08:46:11;92046.19;;;15.09;100.00
7660;BME280;3872;47.902;8.162;2022-10-22T08:48:44;92040.28;;;15.50;100.00
7660;BME280;3872;47.902;8.162;2022-10-22T08:51:15;92043.72;;;15.50;100.00
7660;BME280;3872;47.902;8.162;2022-10-22T08:56:28;92044.94;;;15.91;100.00
7660;BME280;3872;47.902;8.162;2022-10-22T08:58:59;92042.56;;;16.39;100.00
7660;BME280;3872;47.902;8.162;2022-10-22T09:01:33;92051.22;;;16.07;100.00
7660;BME280;3872;47.902;8.162;2022-10-22T09:04:04;92053.06;;;16.36;100.00
7660;BME280;3872;47.902;8.162;2022-10-22T09:06:35;92050.91;;;16.09;100.00
7660;BME280;3872;47.902;8.162;2022-10-22T09:09:10;92050.50;;;16.69;100.00
7660;BME280;3872;47.902;8.162;2022-10-22T09:11:38;92052.81;;;17.03;100.00
7660;BME280;3872;47.902;8.162;2022-10-22T09:14:05;92054.31;;;16.92;100.00
7660;BME280;3872;47.902;8.162;2022-10-22T09:16:46;92051.81;;;17.08;100.00
7660;BME280;3872;47.902;8.162;2022-10-22T09:19:22;92047.22;;;17.41;100.00
7660;BME280;3872;47.902;8.162;2022-10-22T09:21:55;92056.72;;;17.18;100.00
7660;BME280;3872;47.902;8.162;2022-10-22T09:24:31;92059.38;;;16.85;100.00
7660;BME280;3872;47.902;8.162;2022-10-22T09:27:03;92062.72;;;17.27;100.00
7660;BME280;3872;47.902;8.162;2022-10-22T09:29:36;92067.47;;;17.21;100.00
7660;BME280;3872;47.902;8.162;2022-10-22T09:32:04;92070.75;;;16.73;100.00
7660;BME280;3872;47.902;8.162;2022-10-22T09:34:31;92078.41;;;16.33;100.00
7660;BME280;3872;47.902;8.162;2022-10-22T09:37:00;92074.88;;;16.21;100.00
7660;BME280;3872;47.902;8.162;2022-10-22T09:39:28;92083.25;;;16.52;100.00
7660;BME280;3872;47.902;8.162;2022-10-22T09:41:57;92083.47;;;16.47;100.00
7660;BME280;3872;47.902;8.162;2022-10-22T09:44:24;92079.66;;;16.27;100.00
7660;BME280;3872;47.902;8.162;2022-10-22T09:46:50;92081.16;;;16.58;100.00
7660;BME280;3872;47.902;8.162;2022-10-22T09:49:21;92083.13;;;16.90;100.00
7660;BME280;3872;47.902;8.162;2022-10-22T09:51:51;92086.72;;;17.06;100.00
7660;BME280;3872;47.902;8.162;2022-10-22T09:54:21;92092.28;;;16.80;100.00
7660;BME280;3872;47.902;8.162;2022-10-22T09:56:54;92084.75;;;16.82;100.00
7660;BME280;3872;47.902;8.162;2022-10-22T09:59:29;92076.78;;;17.85;100.00
7660;BME280;3872;47.902;8.162;2022-10-22T10:01:59;92089.00;;;18.10;100.00
7660;BME280;3872;47.902;8.162;2022-10-22T10:04:33;92084.72;;;18.58;100.00
7660;BME280;3872;47.902;8.162;2022-10-22T10:07:00;92092.69;;;18.98;100.00
7660;BME280;3872;47.902;8.162;2022-10-22T10:09:29;92090.75;;;19.38;100.00
7660;BME280;3872;47.902;8.162;2022-10-22T10:12:03;92095.78;;;19.28;100.00
7660;BME280;3872;47.902;8.162;2022-10-22T10:14:39;92089.88;;;18.78;100.00
7660;BME280;3872;47.902;8.162;2022-10-22T10:17:17;92087.16;;;18.91;100.00
7660;BME280;3872;47.902;8.162;2022-10-22T10:19:59;92092.19;;;17.91;100.00
7660;BME280;3872;47.902;8.162;2022-10-22T10:22:43;92096.25;;;18.74;100.00
7660;BME280;3872;47.902;8.162;2022-10-22T10:25:40;92087.13;;;19.31;100.00
7660;BME280;3872;47.902;8.162;2022-10-22T10:28:18;92098.75;;;19.82;100.00
7660;BME280;3872;47.902;8.162;2022-10-22T10:30:52;92089.53;;;19.95;100.00
7660;BME280;3872;47.902;8.162;2022-10-22T10:33:30;92090.97;;;19.77;100.00
7660;BME280;3872;47.902;8.162;2022-10-22T10:36:05;92091.81;;;19.97;100.00
7660;BME280;3872;47.902;8.162;2022-10-22T10:38:44;92094.78;;;19.32;100.00
7660;BME280;3872;47.902;8.162;2022-10-22T10:41:20;92096.38;;;20.43;100.00
7660;BME280;3872;47.902;8.162;2022-10-22T10:44:07;92100.53;;;20.95;100.00
7660;BME280;3872;47.902;8.162;2022-10-22T10:46:46;92104.84;;;18.95;100.00
7660;BME280;3872;47.902;8.162;2022-10-22T10:49:18;92098.84;;;18.34;100.00
7660;BME280;3872;47.902;8.162;2022-10-22T10:51:52;92096.13;;;19.10;100.00
7660;BME280;3872;47.902;8.162;2022-10-22T10:54:45;92094.94;;;20.14;95.46
7660;BME280;3872;47.902;8.162;2022-10-22T10:57:23;92087.41;;;20.20;100.00
7660;BME280;3872;47.902;8.162;2022-10-22T11:00:03;92098.03;;;18.98;100.00
7660;BME280;3872;47.902;8.162;2022-10-22T11:02:50;92097.75;;;19.15;100.00
7660;BME280;3872;47.902;8.162;2022-10-22T11:05:30;92098.22;;;18.77;100.00
7660;BME280;3872;47.902;8.162;2022-10-22T11:08:03;92088.66;;;19.91;96.24
7660;BME280;3872;47.902;8.162;2022-10-22T11:10:38;92094.28;;;21.26;87.56
7660;BME280;3872;47.902;8.162;2022-10-22T11:13:11;92088.22;;;21.71;86.09
7660;BME280;3872;47.902;8.162;2022-10-22T11:15:44;92095.53;;;20.23;84.31
7660;BME280;3872;47.902;8.162;2022-10-22T11:18:17;92096.31;;;19.33;87.67
7660;BME280;3872;47.902;8.162;2022-10-22T11:20:54;92095.59;;;20.27;85.57
7660;BME280;3872;47.902;8.162;2022-10-22T11:23:28;92091.03;;;19.49;82.21
7660;BME280;3872;47.902;8.162;2022-10-22T11:25:58;92093.78;;;18.81;86.38
7660;BME280;3872;47.902;8.162;2022-10-22T11:28:28;92103.97;;;19.78;85.28
7660;BME280;3872;47.902;8.162;2022-10-22T11:31:01;92099.75;;;20.24;74.73
7660;BME280;3872;47.902;8.162;2022-10-22T11:33:35;92107.78;;;20.94;82.41
7660;BME280;3872;47.902;8.162;2022-10-22T11:36:07;92109.16;;;19.43;80.31
7660;BME280;3872;47.902;8.162;2022-10-22T11:38:35;92095.78;;;20.34;80.48
7660;BME280;3872;47.902;8.162;2022-10-22T11:41:05;92092.84;;;20.23;79.77
7660;BME280;3872;47.902;8.162;2022-10-22T11:43:33;92091.69;;;19.74;75.36
7660;BME280;3872;47.902;8.162;2022-10-22T11:46:08;92094.75;;;21.12;74.55
7660;BME280;3872;47.902;8.162;2022-10-22T11:49:01;92094.06;;;21.15;65.59
7660;BME280;3872;47.902;8.162;2022-10-22T11:51:31;92088.47;;;19.84;67.54
7660;BME280;3872;47.902;8.162;2022-10-22T11:54:02;92098.66;;;19.78;69.04
7660;BME280;3872;47.902;8.162;2022-10-22T11:56:51;92092.69;;;21.86;68.36
7660;BME280;3872;47.902;8.162;2022-10-22T11:59:38;92088.06;;;21.41;67.05
7660;BME280;3872;47.902;8.162;2022-10-22T12:02:23;92091.66;;;20.91;71.31
7660;BME280;3872;47.902;8.162;2022-10-22T12:04:50;92092.13;;;20.58;69.43
7660;BME280;3872;47.902;8.162;2022-10-22T12:07:33;92086.56;;;22.08;68.19
7660;BME280;3872;47.902;8.162;2022-10-22T12:10:04;92094.13;;;22.03;62.92
7660;BME280;3872;47.902;8.162;2022-10-22T12:12:37;92077.81;;;23.24;66.21
7660;BME280;3872;47.902;8.162;2022-10-22T12:15:21;92079.31;;;22.35;59.91
7660;BME280;3872;47.902;8.162;2022-10-22T12:17:49;92081.25;;;23.21;61.61
7660;BME280;3872;47.902;8.162;2022-10-22T12:20:16;92084.56;;;22.54;59.12
7660;BME280;3872;47.902;8.162;2022-10-22T12:22:43;92087.97;;;23.41;60.68
7660;BME280;3872;47.902;8.162;2022-10-22T12:25:17;92087.88;;;21.53;63.26
7660;BME280;3872;47.902;8.162;2022-10-22T12:27:50;92079.47;;;21.97;61.79
7660;BME280;3872;47.902;8.162;2022-10-22T12:30:19;92081.94;;;22.84;59.88
7660;BME280;3872;47.902;8.162;2022-10-22T12:32:50;92087.38;;;22.35;59.27
7660;BME280;3872;47.902;8.162;2022-10-22T12:35:19;92086.75;;;21.73;61.81
7660;BME280;3872;47.902;8.162;2022-10-22T12:37:48;92084.28;;;22.86;58.58
7660;BME280;3872;47.902;8.162;2022-10-22T12:40:18;92082.41;;;22.63;59.25
7660;BME280;3872;47.902;8.162;2022-10-22T12:42:48;92084.13;;;23.05;58.25
7660;BME280;3872;47.902;8.162;2022-10-22T12:45:15;92084.28;;;23.19;52.77
7660;BME280;3872;47.902;8.162;2022-10-22T12:47:44;92074.09;;;22.72;55.94
7660;BME280;3872;47.902;8.162;2022-10-22T12:50:17;92079.09;;;22.47;56.91
7660;BME280;3872;47.902;8.162;2022-10-22T12:52:44;92074.63;;;22.55;56.02
7660;BME280;3872;47.902;8.162;2022-10-22T12:55:14;92073.22;;;23.24;54.35
7660;BME280;3872;47.902;8.162;2022-10-22T12:57:41;92065.56;;;24.04;51.04
7660;BME280;3872;47.902;8.162;2022-10-22T13:00:21;92074.88;;;24.13;54.81
7660;BME280;3872;47.902;8.162;2022-10-22T13:02:48;92081.56;;;22.59;56.00
7660;BME280;3872;47.902;8.162;2022-10-22T13:05:21;92071.22;;;22.32;56.76
7660;BME280;3872;47.902;8.162;2022-10-22T13:07:50;92067.69;;;22.54;60.76
7660;BME280;3872;47.902;8.162;2022-10-22T13:10:23;92060.13;;;22.07;64.20
7660;BME280;3872;47.902;8.162;2022-10-22T13:12:54;92065.38;;;20.58;59.32
7660;BME280;3872;47.902;8.162;2022-10-22T13:15:33;92059.44;;;21.91;62.46
7660;BME280;3872;47.902;8.162;2022-10-22T13:18:12;92060.72;;;23.39;58.34
7660;BME280;3872;47.902;8.162;2022-10-22T13:20:49;92054.88;;;23.67;54.31
7660;BME280;3872;47.902;8.162;2022-10-22T13:23:18;92055.03;;;23.44;60.44
7660;BME280;3872;47.902;8.162;2022-10-22T13:25:56;92055.88;;;23.18;59.79
7660;BME280;3872;47.902;8.162;2022-10-22T13:28:23;92048.84;;;23.40;63.97
7660;BME280;3872;47.902;8.162;2022-10-22T13:30:53;92052.78;;;23.90;62.80
7660;BME280;3872;47.902;8.162;2022-10-22T13:33:23;92051.72;;;22.35;55.49